sensor_id;sensor_type;location;lat;lon;timestamp;P1;durP1;ratioP1;P2;durP2;ratioP2
815;SDS011;25928;51.062;13.752;2023-04-25T00:00:26;4.07;;;3.20;;
815;SDS011;25928;51.062;13.752;2023-04-25T00:02:52;4.00;;;3.30;;
815;SDS011;25928;51.062;13.752;2023-04-25T00:05:17;3.30;;;3.00;;
815;SDS011;25928;51.062;13.752;2023-04-25T00:07:44;3.67;;;3.37;;
815;SDS011;25928;51.062;13.752;2023-04-25T00:10:11;3.87;;;2.90;;
815;SDS011;25928;51.062;13.752;2023-04-25T00:12:37;3.53;;;3.23;;
815;SDS011;25928;51.062;13.752;2023-04-25T00:15:04;3.40;;;3.10;;
815;SDS011;25928;51.062;13.752;2023-04-25T00:17:30;3.23;;;2.93;;
815;SDS011;25928;51.062;13.752;2023-04-25T00:19:56;4.33;;;3.70;;
815;SDS011;25928;51.062;13.752;2023-04-25T00:22:23;3.70;;;3.40;;
815;SDS011;25928;51.062;13.752;2023-04-25T00:24:48;5.63;;;3.93;;
815;SDS011;25928;51.062;13.752;2023-04-25T00:27:15;4.87;;;3.63;;
815;SDS011;25928;51.062;13.752;2023-04-25T00:29:40;5.23;;;3.90;;
815;SDS011;25928;51.062;13.752;2023-04-25T00:32:06;3.87;;;3.07;;
815;SDS011;25928;51.062;13.752;2023-04-25T00:34:32;4.70;;;3.60;;
815;SDS011;25928;51.062;13.752;2023-04-25T00:36:57;4.90;;;3.70;;
815;SDS011;25928;51.062;13.752;2023-04-25T00:39:23;6.53;;;3.10;;
815;SDS011;25928;51.062;13.752;2023-04-25T00:41:49;3.60;;;3.30;;
815;SDS011;25928;51.062;13.752;2023-04-25T00:44:18;5.10;;;3.73;;
815;SDS011;25928;51.062;13.752;2023-04-25T00:46:44;4.00;;;3.60;;
815;SDS011;25928;51.062;13.752;2023-04-25T00:49:15;3.30;;;3.00;;
815;SDS011;25928;51.062;13.752;2023-04-25T00:51:41;4.13;;;3.60;;
815;SDS011;25928;51.062;13.752;2023-04-25T00:54:09;4.37;;;3.33;;
815;SDS011;25928;51.062;13.752;2023-04-25T00:56:36;4.43;;;4.03;;
815;SDS011;25928;51.062;13.752;2023-04-25T00:59:02;7.00;;;4.60;;
815;SDS011;25928;51.062;13.752;2023-04-25T01:01:28;5.40;;;4.57;;
815;SDS011;25928;51.062;13.752;2023-04-25T01:03:54;4.90;;;4.50;;
815;SDS011;25928;51.062;13.752;2023-04-25T01:06:21;4.67;;;4.17;;
815;SDS011;25928;51.062;13.752;2023-04-25T01:08:47;4.63;;;4.23;;
815;SDS011;25928;51.062;13.752;2023-04-25T01:11:13;4.30;;;3.90;;
815;SDS011;25928;51.062;13.752;2023-04-25T01:13:38;6.13;;;4.20;;
815;SDS011;25928;51.062;13.752;2023-04-25T01:16:04;6.03;;;4.30;;
815;SDS011;25928;51.062;13.752;2023-04-25T01:18:30;5.00;;;4.50;;
815;SDS011;25928;51.062;13.752;2023-04-25T01:20:56;5.23;;;4.33;;
815;SDS011;25928;51.062;13.752;2023-04-25T01:23:32;10.20;;;5.50;;
815;SDS011;25928;51.062;13.752;2023-04-25T01:25:58;4.87;;;4.37;;
815;SDS011;25928;51.062;13.752;2023-04-25T01:28:24;5.97;;;4.30;;
815;SDS011;25928;51.062;13.752;2023-04-25T01:30:50;5.23;;;4.33;;
815;SDS011;25928;51.062;13.752;2023-04-25T01:33:16;5.93;;;5.20;;
815;SDS011;25928;51.062;13.752;2023-04-25T01:35:44;7.33;;;4.87;;
815;SDS011;25928;51.062;13.752;2023-04-25T01:38:09;6.37;;;4.77;;
815;SDS011;25928;51.062;13.752;2023-04-25T01:40:37;10.27;;;5.30;;
815;SDS011;25928;51.062;13.752;2023-04-25T01:43:05;5.33;;;4.80;;
815;SDS011;25928;51.062;13.752;2023-04-25T01:45:31;5.77;;;4.90;;
815;SDS011;25928;51.062;13.752;2023-04-25T01:47:58;5.60;;;4.90;;
815;SDS011;25928;51.062;13.752;2023-04-25T01:50:24;6.67;;;5.20;;
815;SDS011;25928;51.062;13.752;2023-04-25T01:52:50;7.30;;;5.67;;
815;SDS011;25928;51.062;13.752;2023-04-25T01:55:16;5.33;;;4.60;;
815;SDS011;25928;51.062;13.752;2023-04-25T01:57:41;6.03;;;4.77;;
815;SDS011;25928;51.062;13.752;2023-04-25T02:00:07;5.33;;;4.93;;
815;SDS011;25928;51.062;13.752;2023-04-25T02:02:34;6.03;;;5.13;;
815;SDS011;25928;51.062;13.752;2023-04-25T02:05:00;7.27;;;5.03;;
815;SDS011;25928;51.062;13.752;2023-04-25T02:07:26;5.50;;;5.00;;
815;SDS011;25928;51.062;13.752;2023-04-25T02:09:52;4.97;;;4.57;;
815;SDS011;25928;51.062;13.752;2023-04-25T02:12:17;6.77;;;4.73;;
815;SDS011;25928;51.062;13.752;2023-04-25T02:14:43;6.93;;;4.83;;
815;SDS011;25928;51.062;13.752;2023-04-25T02:17:09;6.03;;;4.70;;
815;SDS011;25928;51.062;13.752;2023-04-25T02:19:35;5.13;;;4.63;;
815;SDS011;25928;51.062;13.752;2023-04-25T02:22:00;4.73;;;3.87;;
815;SDS011;25928;51.062;13.752;2023-04-25T02:24:26;8.27;;;5.10;;
815;SDS011;25928;51.062;13.752;2023-04-25T02:26:52;6.97;;;4.87;;
815;SDS011;25928;51.062;13.752;2023-04-25T02:29:20;5.57;;;4.90;;
815;SDS011;25928;51.062;13.752;2023-04-25T02:31:46;6.20;;;4.60;;
815;SDS011;25928;51.062;13.752;2023-04-25T02:34:11;9.13;;;5.33;;
815;SDS011;25928;51.062;13.752;2023-04-25T02:36:37;7.23;;;5.23;;
815;SDS011;25928;51.062;13.752;2023-04-25T02:39:03;6.20;;;4.70;;
815;SDS011;25928;51.062;13.752;2023-04-25T02:41:28;4.90;;;4.13;;
815;SDS011;25928;51.062;13.752;2023-04-25T02:43:54;5.87;;;4.67;;
815;SDS011;25928;51.062;13.752;2023-04-25T02:46:20;9.00;;;4.20;;
815;SDS011;25928;51.062;13.752;2023-04-25T02:48:45;5.53;;;4.77;;
815;SDS011;25928;51.062;13.752;2023-04-25T02:51:11;5.70;;;5.07;;
815;SDS011;25928;51.062;13.752;2023-04-25T02:53:37;7.23;;;5.30;;
815;SDS011;25928;51.062;13.752;2023-04-25T02:56:02;6.70;;;5.20;;
815;SDS011;25928;51.062;13.752;2023-04-25T02:58:28;7.17;;;5.33;;
815;SDS011;25928;51.062;13.752;2023-04-25T03:00:54;4.83;;;4.40;;
815;SDS011;25928;51.062;13.752;2023-04-25T03:03:20;6.53;;;4.33;;
815;SDS011;25928;51.062;13.752;2023-04-25T03:05:49;9.10;;;5.10;;
815;SDS011;25928;51.062;13.752;2023-04-25T03:08:15;5.70;;;5.20;;
815;SDS011;25928;51.062;13.752;2023-04-25T03:10:41;6.73;;;4.57;;
815;SDS011;25928;51.062;13.752;2023-04-25T03:13:07;7.50;;;4.93;;
815;SDS011;25928;51.062;13.752;2023-04-25T03:15:32;6.80;;;5.23;;
815;SDS011;25928;51.062;13.752;2023-04-25T03:17:58;8.20;;;5.60;;
815;SDS011;25928;51.062;13.752;2023-04-25T03:20:24;5.43;;;4.60;;
815;SDS011;25928;51.062;13.752;2023-04-25T03:22:49;5.17;;;4.67;;
815;SDS011;25928;51.062;13.752;2023-04-25T03:25:15;6.13;;;5.27;;
815;SDS011;25928;51.062;13.752;2023-04-25T03:27:41;9.40;;;5.30;;
815;SDS011;25928;51.062;13.752;2023-04-25T03:30:06;7.30;;;5.00;;
815;SDS011;25928;51.062;13.752;2023-04-25T03:32:33;7.93;;;5.67;;
815;SDS011;25928;51.062;13.752;2023-04-25T03:34:59;5.30;;;4.80;;
815;SDS011;25928;51.062;13.752;2023-04-25T03:37:24;6.00;;;5.40;;
815;SDS011;25928;51.062;13.752;2023-04-25T03:39:50;5.33;;;4.83;;
815;SDS011;25928;51.062;13.752;2023-04-25T03:42:16;6.57;;;5.60;;
815;SDS011;25928;51.062;13.752;2023-04-25T03:44:42;9.50;;;5.67;;
815;SDS011;25928;51.062;13.752;2023-04-25T03:47:08;7.10;;;5.83;;
815;SDS011;25928;51.062;13.752;2023-04-25T03:49:34;6.33;;;5.47;;
815;SDS011;25928;51.062;13.752;2023-04-25T03:52:00;6.87;;;5.60;;
815;SDS011;25928;51.062;13.752;2023-04-25T03:54:26;6.17;;;5.57;;
815;SDS011;25928;51.062;13.752;2023-04-25T03:56:52;9.80;;;6.23;;
815;SDS011;25928;51.062;13.752;2023-04-25T03:59:18;6.83;;;5.33;;
815;SDS011;25928;51.062;13.752;2023-04-25T04:01:43;8.33;;;5.87;;
815;SDS011;25928;51.062;13.752;2023-04-25T04:04:09;7.07;;;5.80;;
815;SDS011;25928;51.062;13.752;2023-04-25T04:06:34;6.67;;;5.20;;
815;SDS011;25928;51.062;13.752;2023-04-25T04:09:01;7.30;;;6.10;;
815;SDS011;25928;51.062;13.752;2023-04-25T04:11:28;7.03;;;5.37;;
815;SDS011;25928;51.062;13.752;2023-04-25T04:13:53;7.63;;;6.53;;
815;SDS011;25928;51.062;13.752;2023-04-25T04:16:19;8.90;;;6.30;;
815;SDS011;25928;51.062;13.752;2023-04-25T04:18:45;8.60;;;6.50;;
815;SDS011;25928;51.062;13.752;2023-04-25T04:21:11;8.20;;;6.57;;
815;SDS011;25928;51.062;13.752;2023-04-25T04:23:36;7.00;;;5.77;;
815;SDS011;25928;51.062;13.752;2023-04-25T04:26:02;10.20;;;6.40;;
815;SDS011;25928;51.062;13.752;2023-04-25T04:28:28;7.10;;;6.10;;
815;SDS011;25928;51.062;13.752;2023-04-25T04:30:54;8.60;;;6.20;;
815;SDS011;25928;51.062;13.752;2023-04-25T04:33:20;8.03;;;6.30;;
815;SDS011;25928;51.062;13.752;2023-04-25T04:35:46;9.20;;;5.40;;
815;SDS011;25928;51.062;13.752;2023-04-25T04:38:12;8.50;;;5.87;;
815;SDS011;25928;51.062;13.752;2023-04-25T04:40:40;11.73;;;6.63;;
815;SDS011;25928;51.062;13.752;2023-04-25T04:43:08;6.57;;;5.70;;
815;SDS011;25928;51.062;13.752;2023-04-25T04:45:35;8.53;;;6.73;;
815;SDS011;25928;51.062;13.752;2023-04-25T04:48:03;7.40;;;6.30;;
815;SDS011;25928;51.062;13.752;2023-04-25T04:50:30;7.73;;;6.13;;
815;SDS011;25928;51.062;13.752;2023-04-25T04:52:57;8.53;;;6.53;;
815;SDS011;25928;51.062;13.752;2023-04-25T04:55:23;8.23;;;6.30;;
815;SDS011;25928;51.062;13.752;2023-04-25T04:57:49;6.43;;;5.60;;
815;SDS011;25928;51.062;13.752;2023-04-25T05:00:15;7.77;;;6.10;;
815;SDS011;25928;51.062;13.752;2023-04-25T05:02:41;6.50;;;5.90;;
815;SDS011;25928;51.062;13.752;2023-04-25T05:05:07;9.27;;;6.37;;
815;SDS011;25928;51.062;13.752;2023-04-25T05:07:33;7.53;;;6.30;;
815;SDS011;25928;51.062;13.752;2023-04-25T05:09:59;7.23;;;6.50;;
815;SDS011;25928;51.062;13.752;2023-04-25T05:12:25;12.33;;;6.70;;
815;SDS011;25928;51.062;13.752;2023-04-25T05:14:50;8.50;;;6.23;;
815;SDS011;25928;51.062;13.752;2023-04-25T05:17:16;8.50;;;6.03;;
815;SDS011;25928;51.062;13.752;2023-04-25T05:19:41;12.97;;;6.50;;
815;SDS011;25928;51.062;13.752;2023-04-25T05:22:07;8.13;;;6.10;;
815;SDS011;25928;51.062;13.752;2023-04-25T05:24:33;11.13;;;7.23;;
815;SDS011;25928;51.062;13.752;2023-04-25T05:26:58;9.00;;;6.50;;
815;SDS011;25928;51.062;13.752;2023-04-25T05:29:24;7.60;;;6.10;;
815;SDS011;25928;51.062;13.752;2023-04-25T05:31:49;7.67;;;5.70;;
815;SDS011;25928;51.062;13.752;2023-04-25T05:34:15;6.97;;;6.13;;
815;SDS011;25928;51.062;13.752;2023-04-25T05:36:41;8.03;;;5.73;;
815;SDS011;25928;51.062;13.752;2023-04-25T05:39:07;7.40;;;6.10;;
815;SDS011;25928;51.062;13.752;2023-04-25T05:41:33;6.60;;;5.90;;
815;SDS011;25928;51.062;13.752;2023-04-25T05:43:59;8.27;;;6.00;;
815;SDS011;25928;51.062;13.752;2023-04-25T05:46:25;8.80;;;5.80;;
815;SDS011;25928;51.062;13.752;2023-04-25T05:48:50;8.37;;;6.60;;
815;SDS011;25928;51.062;13.752;2023-04-25T05:51:16;8.93;;;6.47;;
815;SDS011;25928;51.062;13.752;2023-04-25T05:53:43;7.53;;;5.73;;
815;SDS011;25928;51.062;13.752;2023-04-25T05:56:09;6.70;;;5.73;;
815;SDS011;25928;51.062;13.752;2023-04-25T05:58:34;9.10;;;5.47;;
815;SDS011;25928;51.062;13.752;2023-04-25T06:01:01;10.53;;;6.37;;
815;SDS011;25928;51.062;13.752;2023-04-25T06:03:26;11.50;;;6.73;;
815;SDS011;25928;51.062;13.752;2023-04-25T06:05:52;8.87;;;5.60;;
815;SDS011;25928;51.062;13.752;2023-04-25T06:08:17;6.63;;;5.90;;
815;SDS011;25928;51.062;13.752;2023-04-25T06:10:43;7.93;;;6.10;;
815;SDS011;25928;51.062;13.752;2023-04-25T06:13:09;7.63;;;6.80;;
815;SDS011;25928;51.062;13.752;2023-04-25T06:15:35;7.27;;;5.70;;
815;SDS011;25928;51.062;13.752;2023-04-25T06:18:01;9.13;;;6.33;;
815;SDS011;25928;51.062;13.752;2023-04-25T06:20:26;11.67;;;7.00;;
815;SDS011;25928;51.062;13.752;2023-04-25T06:22:52;11.23;;;7.27;;
815;SDS011;25928;51.062;13.752;2023-04-25T06:25:17;8.57;;;7.33;;
815;SDS011;25928;51.062;13.752;2023-04-25T06:27:43;7.93;;;6.20;;
815;SDS011;25928;51.062;13.752;2023-04-25T06:30:09;7.73;;;6.13;;
815;SDS011;25928;51.062;13.752;2023-04-25T06:32:37;12.00;;;6.87;;
815;SDS011;25928;51.062;13.752;2023-04-25T06:35:03;7.03;;;5.60;;
815;SDS011;25928;51.062;13.752;2023-04-25T06:37:29;8.23;;;5.87;;
815;SDS011;25928;51.062;13.752;2023-04-25T06:39:55;7.13;;;4.70;;
815;SDS011;25928;51.062;13.752;2023-04-25T06:42:20;7.27;;;6.50;;
815;SDS011;25928;51.062;13.752;2023-04-25T06:44:46;6.63;;;5.47;;
815;SDS011;25928;51.062;13.752;2023-04-25T06:47:11;7.87;;;4.93;;
815;SDS011;25928;51.062;13.752;2023-04-25T06:49:37;6.03;;;5.37;;
815;SDS011;25928;51.062;13.752;2023-04-25T06:52:03;12.07;;;6.17;;
815;SDS011;25928;51.062;13.752;2023-04-25T06:54:28;5.60;;;4.27;;
815;SDS011;25928;51.062;13.752;2023-04-25T06:56:55;6.37;;;4.90;;
815;SDS011;25928;51.062;13.752;2023-04-25T06:59:21;6.90;;;5.30;;
815;SDS011;25928;51.062;13.752;2023-04-25T07:01:46;8.40;;;5.17;;
815;SDS011;25928;51.062;13.752;2023-04-25T07:04:12;7.63;;;5.47;;
815;SDS011;25928;51.062;13.752;2023-04-25T07:06:38;8.77;;;5.47;;
815;SDS011;25928;51.062;13.752;2023-04-25T07:09:07;8.30;;;4.93;;
815;SDS011;25928;51.062;13.752;2023-04-25T07:11:34;5.23;;;4.30;;
815;SDS011;25928;51.062;13.752;2023-04-25T07:14:00;4.87;;;4.40;;
815;SDS011;25928;51.062;13.752;2023-04-25T07:16:26;6.50;;;4.83;;
815;SDS011;25928;51.062;13.752;2023-04-25T07:18:52;6.73;;;4.23;;
815;SDS011;25928;51.062;13.752;2023-04-25T07:21:18;6.60;;;4.20;;
815;SDS011;25928;51.062;13.752;2023-04-25T07:23:43;7.37;;;4.60;;
815;SDS011;25928;51.062;13.752;2023-04-25T07:26:10;7.47;;;4.60;;
815;SDS011;25928;51.062;13.752;2023-04-25T07:28:36;9.43;;;8.03;;
815;SDS011;25928;51.062;13.752;2023-04-25T07:31:01;9.20;;;5.80;;
815;SDS011;25928;51.062;13.752;2023-04-25T07:33:27;6.63;;;5.00;;
815;SDS011;25928;51.062;13.752;2023-04-25T07:35:53;5.27;;;4.50;;
815;SDS011;25928;51.062;13.752;2023-04-25T07:38:20;7.23;;;5.53;;
815;SDS011;25928;51.062;13.752;2023-04-25T07:40:47;8.07;;;5.27;;
815;SDS011;25928;51.062;13.752;2023-04-25T07:43:13;4.70;;;4.30;;
815;SDS011;25928;51.062;13.752;2023-04-25T07:45:41;5.30;;;4.60;;
815;SDS011;25928;51.062;13.752;2023-04-25T07:48:10;7.30;;;4.50;;
815;SDS011;25928;51.062;13.752;2023-04-25T07:50:35;7.87;;;4.73;;
815;SDS011;25928;51.062;13.752;2023-04-25T07:53:01;4.87;;;4.33;;
815;SDS011;25928;51.062;13.752;2023-04-25T07:55:27;7.43;;;4.67;;
815;SDS011;25928;51.062;13.752;2023-04-25T07:57:53;4.40;;;3.47;;
815;SDS011;25928;51.062;13.752;2023-04-25T08:00:18;4.23;;;3.20;;
815;SDS011;25928;51.062;13.752;2023-04-25T08:02:44;9.10;;;4.23;;
815;SDS011;25928;51.062;13.752;2023-04-25T08:05:10;4.30;;;3.80;;
815;SDS011;25928;51.062;13.752;2023-04-25T08:07:39;4.93;;;3.40;;
815;SDS011;25928;51.062;13.752;2023-04-25T08:10:06;4.40;;;4.00;;
815;SDS011;25928;51.062;13.752;2023-04-25T08:12:32;3.73;;;3.17;;
815;SDS011;25928;51.062;13.752;2023-04-25T08:14:57;3.60;;;2.90;;
815;SDS011;25928;51.062;13.752;2023-04-25T08:17:23;4.60;;;3.10;;
815;SDS011;25928;51.062;13.752;2023-04-25T08:19:49;4.97;;;3.53;;
815;SDS011;25928;51.062;13.752;2023-04-25T08:22:15;6.10;;;4.23;;
815;SDS011;25928;51.062;13.752;2023-04-25T08:24:41;6.80;;;3.70;;
815;SDS011;25928;51.062;13.752;2023-04-25T08:27:06;3.53;;;2.93;;
815;SDS011;25928;51.062;13.752;2023-04-25T08:29:33;5.80;;;3.53;;
815;SDS011;25928;51.062;13.752;2023-04-25T08:31:59;7.57;;;3.67;;
815;SDS011;25928;51.062;13.752;2023-04-25T08:34:25;7.47;;;4.00;;
815;SDS011;25928;51.062;13.752;2023-04-25T08:36:51;3.77;;;3.40;;
815;SDS011;25928;51.062;13.752;2023-04-25T08:39:17;6.33;;;3.53;;
815;SDS011;25928;51.062;13.752;2023-04-25T08:41:43;3.73;;;3.43;;
815;SDS011;25928;51.062;13.752;2023-04-25T08:44:12;5.50;;;4.17;;
815;SDS011;25928;51.062;13.752;2023-04-25T08:46:40;5.10;;;4.10;;
815;SDS011;25928;51.062;13.752;2023-04-25T08:49:06;7.00;;;4.60;;
815;SDS011;25928;51.062;13.752;2023-04-25T08:51:34;5.87;;;4.30;;
815;SDS011;25928;51.062;13.752;2023-04-25T08:54:09;8.03;;;5.23;;
815;SDS011;25928;51.062;13.752;2023-04-25T08:56:37;4.53;;;3.67;;
815;SDS011;25928;51.062;13.752;2023-04-25T08:59:05;11.67;;;4.20;;
815;SDS011;25928;51.062;13.752;2023-04-25T09:01:33;8.20;;;4.63;;
815;SDS011;25928;51.062;13.752;2023-04-25T09:04:00;7.27;;;4.37;;
815;SDS011;25928;51.062;13.752;2023-04-25T09:06:26;5.13;;;3.77;;
815;SDS011;25928;51.062;13.752;2023-04-25T09:08:53;4.90;;;4.47;;
815;SDS011;25928;51.062;13.752;2023-04-25T09:11:19;5.00;;;4.40;;
815;SDS011;25928;51.062;13.752;2023-04-25T09:13:45;6.73;;;4.43;;
815;SDS011;25928;51.062;13.752;2023-04-25T09:16:10;6.63;;;4.53;;
815;SDS011;25928;51.062;13.752;2023-04-25T09:18:36;5.73;;;4.60;;
815;SDS011;25928;51.062;13.752;2023-04-25T09:21:06;8.73;;;5.57;;
815;SDS011;25928;51.062;13.752;2023-04-25T09:23:40;9.90;;;6.43;;
815;SDS011;25928;51.062;13.752;2023-04-25T09:26:09;7.03;;;5.37;;
815;SDS011;25928;51.062;13.752;2023-04-25T09:28:34;5.73;;;5.13;;
815;SDS011;25928;51.062;13.752;2023-04-25T09:31:01;7.90;;;5.60;;
815;SDS011;25928;51.062;13.752;2023-04-25T09:33:27;12.87;;;5.63;;
815;SDS011;25928;51.062;13.752;2023-04-25T09:35:56;6.63;;;4.80;;
815;SDS011;25928;51.062;13.752;2023-04-25T09:38:40;7.50;;;6.03;;
815;SDS011;25928;51.062;13.752;2023-04-25T09:41:07;6.40;;;5.53;;
815;SDS011;25928;51.062;13.752;2023-04-25T09:43:34;8.63;;;5.80;;
815;SDS011;25928;51.062;13.752;2023-04-25T09:46:00;10.73;;;6.50;;
815;SDS011;25928;51.062;13.752;2023-04-25T09:48:27;8.23;;;6.80;;
815;SDS011;25928;51.062;13.752;2023-04-25T09:51:09;7.10;;;5.53;;
815;SDS011;25928;51.062;13.752;2023-04-25T09:53:36;6.40;;;5.47;;
815;SDS011;25928;51.062;13.752;2023-04-25T09:56:04;6.33;;;5.70;;
815;SDS011;25928;51.062;13.752;2023-04-25T09:58:32;5.93;;;5.27;;
815;SDS011;25928;51.062;13.752;2023-04-25T10:01:05;6.73;;;5.70;;
815;SDS011;25928;51.062;13.752;2023-04-25T10:03:33;6.40;;;5.77;;
815;SDS011;25928;51.062;13.752;2023-04-25T10:06:00;8.97;;;6.63;;
815;SDS011;25928;51.062;13.752;2023-04-25T10:08:29;5.60;;;4.97;;
815;SDS011;25928;51.062;13.752;2023-04-25T10:11:01;4.70;;;4.13;;
815;SDS011;25928;51.062;13.752;2023-04-25T10:13:28;6.27;;;4.87;;
815;SDS011;25928;51.062;13.752;2023-04-25T10:15:56;7.60;;;4.80;;
815;SDS011;25928;51.062;13.752;2023-04-25T10:18:23;5.80;;;4.70;;
815;SDS011;25928;51.062;13.752;2023-04-25T10:20:51;5.50;;;3.63;;
815;SDS011;25928;51.062;13.752;2023-04-25T10:23:21;5.23;;;4.73;;
815;SDS011;25928;51.062;13.752;2023-04-25T10:25:49;4.87;;;4.10;;
815;SDS011;25928;51.062;13.752;2023-04-25T10:28:16;4.73;;;4.13;;
815;SDS011;25928;51.062;13.752;2023-04-25T10:33:34;4.87;;;4.37;;
815;SDS011;25928;51.062;13.752;2023-04-25T10:36:08;4.70;;;4.30;;
815;SDS011;25928;51.062;13.752;2023-04-25T10:38:37;4.97;;;4.47;;
815;SDS011;25928;51.062;13.752;2023-04-25T10:41:05;9.40;;;4.77;;
815;SDS011;25928;51.062;13.752;2023-04-25T10:46:01;6.13;;;4.57;;
815;SDS011;25928;51.062;13.752;2023-04-25T10:48:28;6.00;;;4.97;;
815;SDS011;25928;51.062;13.752;2023-04-25T10:51:07;8.07;;;4.80;;
815;SDS011;25928;51.062;13.752;2023-04-25T10:53:34;7.50;;;4.97;;
815;SDS011;25928;51.062;13.752;2023-04-25T10:56:00;7.40;;;5.07;;
815;SDS011;25928;51.062;13.752;2023-04-25T10:58:34;7.43;;;5.83;;
815;SDS011;25928;51.062;13.752;2023-04-25T11:01:00;5.60;;;5.10;;
815;SDS011;25928;51.062;13.752;2023-04-25T11:03:26;6.87;;;5.37;;
815;SDS011;25928;51.062;13.752;2023-04-25T11:05:52;6.17;;;5.60;;
815;SDS011;25928;51.062;13.752;2023-04-25T11:08:20;7.10;;;6.30;;
815;SDS011;25928;51.062;13.752;2023-04-25T11:11:01;12.60;;;6.60;;
815;SDS011;25928;51.062;13.752;2023-04-25T11:13:30;6.77;;;5.20;;
815;SDS011;25928;51.062;13.752;2023-04-25T11:15:56;5.53;;;5.03;;
815;SDS011;25928;51.062;13.752;2023-04-25T11:18:25;6.43;;;5.67;;
815;SDS011;25928;51.062;13.752;2023-04-25T11:20:51;8.03;;;5.57;;
815;SDS011;25928;51.062;13.752;2023-04-25T11:23:17;11.60;;;6.30;;
815;SDS011;25928;51.062;13.752;2023-04-25T11:25:43;5.77;;;5.17;;
815;SDS011;25928;51.062;13.752;2023-04-25T11:28:09;6.73;;;4.50;;
815;SDS011;25928;51.062;13.752;2023-04-25T11:30:35;7.27;;;4.80;;
815;SDS011;25928;51.062;13.752;2023-04-25T11:33:00;3.60;;;3.30;;
815;SDS011;25928;51.062;13.752;2023-04-25T11:35:28;7.83;;;3.70;;
815;SDS011;25928;51.062;13.752;2023-04-25T11:37:53;4.97;;;3.90;;
815;SDS011;25928;51.062;13.752;2023-04-25T11:40:20;3.63;;;3.30;;
815;SDS011;25928;51.062;13.752;2023-04-25T11:42:46;5.13;;;4.10;;
815;SDS011;25928;51.062;13.752;2023-04-25T11:45:12;6.80;;;3.60;;
815;SDS011;25928;51.062;13.752;2023-04-25T11:47:39;3.03;;;2.70;;
815;SDS011;25928;51.062;13.752;2023-04-25T11:50:05;3.23;;;2.43;;
815;SDS011;25928;51.062;13.752;2023-04-25T11:52:36;6.03;;;2.47;;
815;SDS011;25928;51.062;13.752;2023-04-25T11:55:09;2.20;;;2.00;;
815;SDS011;25928;51.062;13.752;2023-04-25T11:57:38;3.63;;;1.80;;
815;SDS011;25928;51.062;13.752;2023-04-25T12:00:06;3.90;;;2.60;;
815;SDS011;25928;51.062;13.752;2023-04-25T12:02:34;2.50;;;2.20;;
815;SDS011;25928;51.062;13.752;2023-04-25T12:05:00;5.07;;;2.67;;
815;SDS011;25928;51.062;13.752;2023-04-25T12:07:29;2.70;;;2.50;;
815;SDS011;25928;51.062;13.752;2023-04-25T12:09:55;6.83;;;2.70;;
815;SDS011;25928;51.062;13.752;2023-04-25T12:12:21;15.03;;;3.13;;
815;SDS011;25928;51.062;13.752;2023-04-25T12:14:47;2.93;;;2.10;;
815;SDS011;25928;51.062;13.752;2023-04-25T12:17:16;3.43;;;2.43;;
815;SDS011;25928;51.062;13.752;2023-04-25T12:19:42;3.60;;;2.60;;
815;SDS011;25928;51.062;13.752;2023-04-25T12:22:22;7.53;;;3.40;;
815;SDS011;25928;51.062;13.752;2023-04-25T12:24:49;3.90;;;2.80;;
815;SDS011;25928;51.062;13.752;2023-04-25T12:27:15;8.63;;;3.17;;
815;SDS011;25928;51.062;13.752;2023-04-25T12:29:50;8.33;;;3.70;;
815;SDS011;25928;51.062;13.752;2023-04-25T12:32:20;8.10;;;3.30;;
815;SDS011;25928;51.062;13.752;2023-04-25T12:34:46;6.77;;;3.60;;
815;SDS011;25928;51.062;13.752;2023-04-25T12:37:12;4.37;;;2.90;;
815;SDS011;25928;51.062;13.752;2023-04-25T12:39:38;4.80;;;2.87;;
815;SDS011;25928;51.062;13.752;2023-04-25T12:42:04;6.50;;;3.40;;
815;SDS011;25928;51.062;13.752;2023-04-25T12:44:30;7.17;;;4.00;;
815;SDS011;25928;51.062;13.752;2023-04-25T12:46:55;7.07;;;3.33;;
815;SDS011;25928;51.062;13.752;2023-04-25T12:49:21;11.87;;;3.80;;
815;SDS011;25928;51.062;13.752;2023-04-25T12:51:47;7.23;;;3.37;;
815;SDS011;25928;51.062;13.752;2023-04-25T12:54:12;6.90;;;4.30;;
815;SDS011;25928;51.062;13.752;2023-04-25T12:56:39;5.90;;;3.90;;
815;SDS011;25928;51.062;13.752;2023-04-25T12:59:06;12.23;;;4.00;;
815;SDS011;25928;51.062;13.752;2023-04-25T13:01:31;7.20;;;4.10;;
815;SDS011;25928;51.062;13.752;2023-04-25T13:03:57;9.50;;;3.70;;
815;SDS011;25928;51.062;13.752;2023-04-25T13:06:23;9.17;;;4.10;;
815;SDS011;25928;51.062;13.752;2023-04-25T13:08:49;7.67;;;4.00;;
815;SDS011;25928;51.062;13.752;2023-04-25T13:11:15;6.13;;;4.07;;
815;SDS011;25928;51.062;13.752;2023-04-25T13:13:41;5.83;;;4.10;;
815;SDS011;25928;51.062;13.752;2023-04-25T13:16:07;5.83;;;4.60;;
815;SDS011;25928;51.062;13.752;2023-04-25T13:18:33;8.67;;;4.77;;
815;SDS011;25928;51.062;13.752;2023-04-25T13:20:59;11.80;;;5.10;;
815;SDS011;25928;51.062;13.752;2023-04-25T13:23:25;9.20;;;4.60;;
815;SDS011;25928;51.062;13.752;2023-04-25T13:25:53;10.10;;;4.87;;
815;SDS011;25928;51.062;13.752;2023-04-25T13:28:20;8.07;;;4.90;;
815;SDS011;25928;51.062;13.752;2023-04-25T13:30:46;10.93;;;4.93;;
815;SDS011;25928;51.062;13.752;2023-04-25T13:33:13;11.20;;;5.20;;
815;SDS011;25928;51.062;13.752;2023-04-25T13:35:39;11.13;;;4.93;;
815;SDS011;25928;51.062;13.752;2023-04-25T13:38:05;9.67;;;5.17;;
815;SDS011;25928;51.062;13.752;2023-04-25T13:40:30;10.60;;;4.87;;
815;SDS011;25928;51.062;13.752;2023-04-25T13:42:57;12.03;;;4.53;;
815;SDS011;25928;51.062;13.752;2023-04-25T13:45:23;7.13;;;3.87;;
815;SDS011;25928;51.062;13.752;2023-04-25T13:47:48;9.87;;;4.50;;
815;SDS011;25928;51.062;13.752;2023-04-25T13:50:14;6.10;;;3.87;;
815;SDS011;25928;51.062;13.752;2023-04-25T13:52:41;9.73;;;4.23;;
815;SDS011;25928;51.062;13.752;2023-04-25T13:55:07;5.03;;;4.17;;
815;SDS011;25928;51.062;13.752;2023-04-25T13:57:33;15.07;;;5.80;;
815;SDS011;25928;51.062;13.752;2023-04-25T14:00:00;8.77;;;4.70;;
815;SDS011;25928;51.062;13.752;2023-04-25T14:02:29;6.13;;;4.47;;
815;SDS011;25928;51.062;13.752;2023-04-25T14:04:55;7.80;;;3.73;;
815;SDS011;25928;51.062;13.752;2023-04-25T14:07:21;8.40;;;3.80;;
815;SDS011;25928;51.062;13.752;2023-04-25T14:09:46;8.70;;;4.43;;
815;SDS011;25928;51.062;13.752;2023-04-25T14:12:12;10.00;;;4.30;;
815;SDS011;25928;51.062;13.752;2023-04-25T14:14:38;9.80;;;4.13;;
815;SDS011;25928;51.062;13.752;2023-04-25T14:17:03;6.70;;;4.60;;
815;SDS011;25928;51.062;13.752;2023-04-25T14:19:29;8.83;;;3.50;;
815;SDS011;25928;51.062;13.752;2023-04-25T14:21:55;6.37;;;4.17;;
815;SDS011;25928;51.062;13.752;2023-04-25T14:24:21;10.00;;;4.60;;
815;SDS011;25928;51.062;13.752;2023-04-25T14:26:46;7.93;;;4.53;;
815;SDS011;25928;51.062;13.752;2023-04-25T14:29:12;13.90;;;4.50;;
815;SDS011;25928;51.062;13.752;2023-04-25T14:31:38;9.63;;;4.30;;
815;SDS011;25928;51.062;13.752;2023-04-25T14:34:05;6.10;;;4.60;;
815;SDS011;25928;51.062;13.752;2023-04-25T14:36:31;7.40;;;3.30;;
815;SDS011;25928;51.062;13.752;2023-04-25T14:38:57;8.40;;;4.30;;
815;SDS011;25928;51.062;13.752;2023-04-25T14:41:24;6.70;;;4.03;;
815;SDS011;25928;51.062;13.752;2023-04-25T14:43:50;11.03;;;4.03;;
815;SDS011;25928;51.062;13.752;2023-04-25T14:46:17;10.70;;;4.80;;
815;SDS011;25928;51.062;13.752;2023-04-25T14:48:43;7.60;;;4.30;;
815;SDS011;25928;51.062;13.752;2023-04-25T14:51:10;7.37;;;4.97;;
815;SDS011;25928;51.062;13.752;2023-04-25T14:53:35;7.87;;;4.67;;
815;SDS011;25928;51.062;13.752;2023-04-25T14:56:01;12.60;;;5.00;;
815;SDS011;25928;51.062;13.752;2023-04-25T14:58:27;9.63;;;5.30;;
815;SDS011;25928;51.062;13.752;2023-04-25T15:01:00;9.93;;;4.70;;